Cape Hatteras Natl Seashore, North Carolina
Current Conditions -  °F | °C
As of 4:51 PM on Wednesday 28 Jan 2015 (Local Time) from KHSE Reporting Station
Clear Clear  
Wind Chill: 33°   Ceiling: Unl
Heat Index: 39°   Visibility: 10mi
Dew Point: 14°   Wind: 8mph
Humidity: 36%   Direction: 350°N
Pressure: 30.19"   Gusts: NA
Location:  35.22°N, 75.68°W
Report Text: KHSE 282151Z AUTO 35007KT 320V030 10SM CLR 04/M10 A3019 RMK AO2 SLP224 T00391100 TSNO
Loading
Personal Weather Stations






























Interactive Weather Map New forecast layout! Learn more

10-Day Weather Forecast

Advertisements
Track Severe Weather on mobile